createdAt,value
2018-07-24T00:01:52.173Z,96964.86
2018-07-24T00:06:46.732Z,96963.67
2018-07-24T00:11:41.320Z,96961.92
2018-07-24T00:16:36.011Z,96961.42
2018-07-24T00:21:30.588Z,96962.23
2018-07-24T00:26:25.185Z,96950.02
2018-07-24T00:31:19.805Z,96963.17
2018-07-24T00:36:14.421Z,96953.92
2018-07-24T00:41:09.050Z,96949.37
2018-07-24T00:46:03.673Z,96940.88
2018-07-24T00:50:58.355Z,96934.31
2018-07-24T00:55:53.065Z,96940.20
2018-07-24T01:00:47.659Z,96927.26
2018-07-24T01:05:42.289Z,96929.45
2018-07-24T01:10:36.864Z,96930.00
2018-07-24T01:15:31.456Z,96932.92
2018-07-24T01:20:26.077Z,96916.44
2018-07-24T01:25:20.609Z,96920.42
2018-07-24T01:30:15.185Z,96908.19
2018-07-24T01:35:09.777Z,96896.77
2018-07-24T01:40:04.430Z,96907.69
2018-07-24T01:44:59.176Z,96904.80
2018-07-24T01:49:53.801Z,96901.88
2018-07-24T01:54:48.341Z,96893.30
2018-07-24T01:59:42.907Z,96888.55
2018-07-24T02:04:37.467Z,96890.73
2018-07-24T02:09:31.750Z,96890.20
2018-07-24T02:14:26.332Z,96885.67
2018-07-24T02:19:20.933Z,96878.53
2018-07-24T02:24:15.439Z,96872.91
2018-07-24T02:29:10.038Z,96874.80
2018-07-24T02:34:04.578Z,96871.14
2018-07-24T02:38:59.122Z,96868.52
2018-07-24T02:43:53.680Z,96869.85
2018-07-24T02:48:48.245Z,96871.20
2018-07-24T02:53:42.846Z,96873.31
2018-07-24T02:58:37.449Z,96862.97
2018-07-24T03:03:32.068Z,96863.00
2018-07-24T03:08:26.693Z,96854.22
2018-07-24T03:13:21.608Z,96861.66
2018-07-24T03:18:16.160Z,96864.84
2018-07-24T03:23:10.743Z,96864.58
2018-07-24T03:28:05.341Z,96865.07
2018-07-24T03:32:59.937Z,96861.66
2018-07-24T03:37:54.518Z,96861.90
2018-07-24T03:42:49.077Z,96858.98
2018-07-24T03:47:43.729Z,96859.78
2018-07-24T03:52:38.347Z,96855.53
2018-07-24T03:57:32.970Z,96862.97
2018-07-24T04:02:27.622Z,96858.69
2018-07-24T04:07:22.159Z,96858.61
2018-07-24T04:12:16.737Z,96851.06
2018-07-24T04:17:11.288Z,96842.00
2018-07-24T04:22:05.873Z,96838.20
2018-07-24T04:27:00.491Z,96846.32
2018-07-24T04:31:55.061Z,96839.88
2018-07-24T04:36:49.377Z,96829.26
2018-07-24T04:41:44.141Z,96826.92
2018-07-24T04:46:38.697Z,96821.03
2018-07-24T04:51:33.395Z,96818.56
2018-07-24T04:56:28.236Z,96814.78
2018-07-24T05:01:22.789Z,96816.09
2018-07-24T05:06:18.069Z,96815.30
2018-07-24T05:11:12.620Z,96806.92
2018-07-24T05:16:07.214Z,96820.67
2018-07-24T05:21:01.875Z,96830.52
2018-07-24T05:25:56.630Z,96819.58
2018-07-24T05:30:51.056Z,96816.38
2018-07-24T05:35:45.480Z,96817.32
2018-07-24T05:40:39.952Z,96823.20
2018-07-24T05:45:34.393Z,96820.38
2018-07-24T05:50:28.860Z,96812.55
2018-07-24T05:55:23.321Z,96811.35
2018-07-24T06:00:17.887Z,96816.47
2018-07-24T06:05:12.656Z,96821.89
2018-07-24T06:10:07.208Z,96815.72
2018-07-24T06:15:01.680Z,96819.75
2018-07-24T06:19:56.137Z,96817.55
2018-07-24T06:24:50.638Z,96820.39
2018-07-24T06:29:45.974Z,96829.95
2018-07-24T06:34:45.569Z,96830.13
2018-07-24T06:39:40.255Z,96824.02
2018-07-24T06:44:34.767Z,96820.38
2018-07-24T06:49:32.779Z,96818.66
2018-07-24T06:54:27.396Z,96829.73
2018-07-24T06:59:22.454Z,96833.19
2018-07-24T07:04:16.969Z,96828.11
2018-07-24T07:09:12.252Z,96829.63
2018-07-24T07:14:07.000Z,96828.05
2018-07-24T07:19:01.457Z,96828.75
2018-07-24T07:23:58.923Z,96818.23
2018-07-24T07:28:53.465Z,96816.72
2018-07-24T07:33:47.924Z,96810.16
2018-07-24T07:38:42.801Z,96812.24
2018-07-24T07:43:36.955Z,96813.48
2018-07-24T07:48:31.464Z,96813.15
2018-07-24T07:53:26.108Z,96807.87
2018-07-24T07:58:22.442Z,96800.62
2018-07-24T08:03:17.386Z,96802.59
2018-07-24T08:08:12.862Z,96795.88
2018-07-24T08:13:07.418Z,96789.33
2018-07-24T08:18:02.103Z,96791.84
2018-07-24T08:23:01.864Z,96787.94
2018-07-24T08:28:02.308Z,96788.06
2018-07-24T08:32:57.656Z,96783.66
2018-07-24T08:37:56.425Z,96782.14
2018-07-24T08:42:51.110Z,96791.69
2018-07-24T08:47:45.722Z,96790.94
2018-07-24T08:52:51.512Z,96792.45
2018-07-24T08:57:48.550Z,96784.63
2018-07-24T09:02:43.241Z,96782.81
2018-07-24T09:07:37.776Z,96786.83
2018-07-24T09:12:32.249Z,96785.45
2018-07-24T09:17:26.836Z,96775.94
2018-07-24T09:22:21.308Z,96777.83
2018-07-24T09:27:15.789Z,96777.73
2018-07-24T09:32:10.849Z,96769.86
2018-07-24T09:37:05.388Z,96769.64
2018-07-24T09:42:00.764Z,96766.23
2018-07-24T09:46:55.729Z,96764.95
2018-07-24T09:51:52.313Z,96764.17
2018-07-24T09:56:46.768Z,96756.36
2018-07-24T10:01:41.290Z,96752.16
2018-07-24T10:06:35.893Z,96749.02
2018-07-24T10:11:30.374Z,96744.89
2018-07-24T10:16:25.430Z,96728.75
2018-07-24T10:21:19.877Z,96727.02
2018-07-24T10:26:18.121Z,96719.28
2018-07-24T10:31:13.119Z,96719.43
2018-07-24T10:36:07.899Z,96715.73
2018-07-24T10:41:02.456Z,96714.31
2018-07-24T10:45:56.987Z,96712.94
2018-07-24T10:50:51.174Z,96706.67
2018-07-24T10:55:46.461Z,96706.98
2018-07-24T11:00:40.990Z,96696.98
2018-07-24T11:05:35.469Z,96692.83
2018-07-24T11:10:29.969Z,96692.11
2018-07-24T11:15:25.918Z,96676.31
2018-07-24T11:20:20.545Z,96674.41
2018-07-24T11:25:16.200Z,96679.98
2018-07-24T11:30:10.521Z,96676.10
2018-07-24T11:35:05.562Z,96674.59
2018-07-24T11:40:00.165Z,96679.25
2018-07-24T11:44:54.810Z,96673.56
2018-07-24T11:49:49.328Z,96663.45
2018-07-24T11:54:43.839Z,96655.52
2018-07-24T11:59:38.314Z,96657.86
2018-07-24T12:04:32.816Z,96657.94
2018-07-24T12:09:27.408Z,96651.78
2018-07-24T12:14:21.602Z,96650.86
2018-07-24T12:19:16.689Z,96642.77
2018-07-24T12:24:11.586Z,96640.83
2018-07-24T12:29:06.077Z,96633.33
2018-07-24T12:34:00.388Z,96630.34
2018-07-24T12:38:54.858Z,96623.87
2018-07-24T12:44:00.043Z,96626.81
2018-07-24T12:48:54.373Z,96622.47
2018-07-24T12:53:48.856Z,96617.91
2018-07-24T12:58:43.079Z,96616.78
2018-07-24T13:03:37.651Z,96611.08
2018-07-24T13:08:32.165Z,96607.50
2018-07-24T13:13:26.952Z,96611.41
2018-07-24T13:18:22.533Z,96601.17
2018-07-24T13:23:23.998Z,96601.87
2018-07-24T13:28:19.665Z,96594.41
2018-07-24T13:33:16.251Z,96595.77
2018-07-24T13:38:10.812Z,96597.44
2018-07-24T13:43:06.457Z,96603.02
2018-07-24T13:48:01.084Z,96593.23
2018-07-24T13:52:55.673Z,96589.59
2018-07-24T13:57:51.197Z,96602.39
2018-07-24T14:02:54.704Z,96598.42
2018-07-24T14:07:51.252Z,96593.52
2018-07-24T14:12:46.860Z,96592.44
2018-07-24T14:17:44.786Z,96583.98
2018-07-24T14:22:42.288Z,96579.19
2018-07-24T14:27:38.725Z,96579.16
2018-07-24T14:32:33.269Z,96574.03
2018-07-24T14:37:27.782Z,96565.83
2018-07-24T14:42:22.264Z,96567.96
2018-07-24T14:47:16.749Z,96560.62
2018-07-24T14:52:11.296Z,96563.35
2018-07-24T14:57:06.869Z,96554.25
2018-07-24T15:02:01.477Z,96550.75
2018-07-24T15:06:56.047Z,96551.27
2018-07-24T15:12:02.436Z,96545.52
2018-07-24T15:16:57.176Z,96545.59
2018-07-24T15:21:51.757Z,96549.13
2018-07-24T15:26:46.266Z,96548.50
2018-07-24T15:31:40.868Z,96543.78
2018-07-24T15:36:35.439Z,96547.84
2018-07-24T15:41:30.112Z,96538.36
2018-07-24T15:46:24.765Z,96536.52
2018-07-24T15:51:20.080Z,96532.72
2018-07-24T15:56:15.045Z,96524.25
2018-07-24T16:01:09.718Z,96526.23
2018-07-24T16:06:04.427Z,96524.89
2018-07-24T16:10:59.113Z,96522.31
2018-07-24T16:15:53.779Z,96522.03
2018-07-24T16:20:48.372Z,96517.58
2018-07-24T16:25:43.092Z,96529.81
2018-07-24T16:30:37.904Z,96529.47
2018-07-24T16:35:33.129Z,96525.80
2018-07-24T16:40:27.726Z,96528.18
2018-07-24T16:45:22.712Z,96523.39
2018-07-24T16:50:18.099Z,96522.18
2018-07-24T16:55:12.902Z,96521.70
2018-07-24T17:00:09.295Z,96520.97
2018-07-24T17:05:04.023Z,96526.61
2018-07-24T17:09:58.757Z,96527.23
2018-07-24T17:14:53.176Z,96526.45
2018-07-24T17:19:47.866Z,96529.48
2018-07-24T17:24:43.002Z,96531.10
2018-07-24T17:29:37.713Z,96532.37
2018-07-24T17:34:32.261Z,96531.88
2018-07-24T17:39:26.801Z,96537.22
2018-07-24T17:44:21.593Z,96539.47
2018-07-24T17:49:16.217Z,96538.95
2018-07-24T17:54:11.004Z,96540.97
2018-07-24T17:59:05.646Z,96550.94
2018-07-24T18:03:59.906Z,96561.39
2018-07-24T18:08:54.525Z,96558.19
2018-07-24T18:13:49.133Z,96558.42
2018-07-24T18:18:43.841Z,96554.90
2018-07-24T18:23:38.466Z,96566.23
2018-07-24T18:28:33.045Z,96570.39
2018-07-24T18:33:27.592Z,96578.34
2018-07-24T18:38:22.200Z,96582.42
2018-07-24T18:43:16.734Z,96582.24
2018-07-24T18:48:11.299Z,96587.25
2018-07-24T18:53:05.964Z,96581.84
2018-07-24T18:58:00.756Z,96596.88
2018-07-24T19:02:55.513Z,96595.76
2018-07-24T19:07:50.071Z,96601.98
2018-07-24T19:12:44.598Z,96607.02
2018-07-24T19:17:39.186Z,96604.77
2018-07-24T19:22:33.774Z,96614.38
2018-07-24T19:27:28.311Z,96616.47
2018-07-24T19:32:22.884Z,96618.23
2018-07-24T19:37:17.433Z,96617.94
2018-07-24T19:42:11.995Z,96623.91
2018-07-24T19:47:06.822Z,96631.83
2018-07-24T19:52:01.379Z,96633.61
2018-07-24T19:56:56.051Z,96640.20
2018-07-24T20:01:50.880Z,96642.11
2018-07-24T20:06:45.628Z,96640.89
2018-07-24T20:11:39.869Z,96648.90
2018-07-24T20:16:34.428Z,96645.48
2018-07-24T20:21:28.993Z,96647.25
2018-07-24T20:26:23.546Z,96658.53
2018-07-24T20:31:18.193Z,96658.15
2018-07-24T20:36:12.440Z,96666.34
2018-07-24T20:41:06.907Z,96659.92
2018-07-24T20:46:01.504Z,96661.13
2018-07-24T20:50:56.112Z,96666.69
2018-07-24T20:55:50.677Z,96672.39
2018-07-24T21:00:45.242Z,96661.25
2018-07-24T21:05:39.867Z,96667.34
2018-07-24T21:10:34.458Z,96670.63
2018-07-24T21:15:29.044Z,96670.25
2018-07-24T21:20:23.656Z,96675.41
2018-07-24T21:25:18.264Z,96681.41
2018-07-24T21:30:12.838Z,96678.35
2018-07-24T21:35:07.466Z,96688.68
2018-07-24T21:40:02.036Z,96690.28
2018-07-24T21:44:56.599Z,96688.53
2018-07-24T21:49:51.157Z,96690.31
2018-07-24T21:54:45.760Z,96686.21
2018-07-24T21:59:40.358Z,96695.77
2018-07-24T22:04:34.913Z,96697.85
2018-07-24T22:09:29.525Z,96699.27
2018-07-24T22:14:24.138Z,96693.28
2018-07-24T22:19:18.765Z,96699.44
2018-07-24T22:24:13.335Z,96701.11
2018-07-24T22:29:07.869Z,96707.42
2018-07-24T22:34:02.411Z,96703.94
2018-07-24T22:38:56.971Z,96706.78
2018-07-24T22:43:51.561Z,96709.88
2018-07-24T22:48:46.076Z,96708.67
2018-07-24T22:53:40.632Z,96718.71
2018-07-24T22:58:35.201Z,96723.97
2018-07-24T23:03:29.754Z,96724.83
2018-07-24T23:08:24.309Z,96723.94
2018-07-24T23:13:18.839Z,96724.32
2018-07-24T23:18:13.152Z,96736.67
2018-07-24T23:23:08.029Z,96722.47
2018-07-24T23:28:02.604Z,96710.50
2018-07-24T23:32:57.175Z,96717.95
2018-07-24T23:37:52.090Z,96718.05
2018-07-24T23:42:46.676Z,96715.34
2018-07-24T23:47:40.871Z,96713.25
2018-07-24T23:52:35.428Z,96706.45
2018-07-24T23:57:29.968Z,96722.47
